Allendale, Massachusetts
Current Conditions -  °F | °C
As of 6:54 AM on Wednesday 26 Nov 2014 (Local Time) from KPSF Reporting Station
Overcast Overcast  
Wind Chill: 30°   Ceiling: 11000
Heat Index: 34°   Visibility: 10mi
Dew Point: 26°   Wind: 5mph
Humidity: 73%   Direction: 300°WNW
Pressure: 30.15"   Gusts: NA
Location:  42.4608°N, 73.282°W
Report Text: KPSF 261154Z AUTO 30004KT 10SM OVC110 01/M03 A3015 RMK AO2 SLP215 T00111033 10028 20011 58001
Loading
Personal Weather Stations






























Interactive Weather Map New forecast layout! Learn more

10-Day Weather Forecast

Advertisements
Track Severe Weather on mobile